Impacts METAR Board
IDs:

KPIT - Pittsburgh Intl, PA, US

Updated at: 2200 UTC 02 Oct 2022
Potential Impact None Slight Moderate High
Time 02/10Z 02/11Z 02/12Z 02/13Z 02/14Z 02/15Z 02/16Z 02/17Z 02/18Z 02/19Z 02/20Z 02/21Z 02/22Z
Temp51 52 53 53 54 54 57 58 61 62 63 65 63
Dewpt48 49 49 49 50 50 50 49 48 49 49 45 45
Altim30.04 30.06 30.08 30.10 30.12 30.13 30.14 30.14 30.14 30.14 30.14 30.15 30.17
VIS7 8 10 6 10 10 10 10 10 10 10 10 10
CIG28 29 27 29 27 18 28 25 60 65 250 -- --
CoverOVCOVCOVCOVCOVCOVCOVCOVCBKNBKNBKNSCTSCT
FltCatMVFRMVFRMVFRMVFRMVFRMVFRMVFRMVFRVFRVFRVFRVFRVFR
WX-RA-RA---RA BR-DZ-RA--------------
WDir203602010203030403040704050
WSpd12 10 10 9 9 7 6 9 13 8 7 9 10
WGst-- -- -- -- -- -- -- -- 17 -- -- -- --
Raw hourly METARs
KPIT 020951Z 02012KT 7SM -RA BKN028 OVC042 11/09 A3004 RMK AO2 RAB28 SLP181 P0000 T01060089
KPIT 021051Z 36010KT 8SM -RA FEW018 OVC029 11/09 A3006 RMK AO2 DZB14E23 SLP188 P0002 T01110094
KPIT 021151Z 02010KT 10SM FEW019 OVC027 12/09 A3008 RMK AO2 RAE31 SLP193 P0000 60004 70049 T01170094 10117 20106 51017
KPIT 021251Z 01009KT 6SM -RA BR FEW019 OVC029 12/09 A3010 RMK AO2 RAB48 SLP200 P0000 T01170094
KPIT 021351Z 02009KT 10SM -DZ FEW018 BKN027 OVC038 12/10 A3012 RMK AO2 RAE36DZB36 SLP207 P0001 T01220100
KPIT 021451Z 03007KT 10SM -RA BKN018 OVC026 12/10 A3013 RMK AO2 DZE17RAB17E36B48 SLP212 P0000 60001 T01220100 51019
KPIT 021551Z 03006KT 10SM SCT019 BKN028 OVC050 14/10 A3014 RMK AO2 RAE40 SLP213 P0000 T01390100
KPIT 021651Z 04009KT 10SM BKN025 OVC050 14/09 A3014 RMK AO2 RAB32E41 SLP215 P0000 T01440094
KPIT 021751Z 03013G17KT 10SM SCT029 BKN060 BKN250 16/09 A3014 RMK AO2 SLP213 60001 T01610089 10161 20117 50002
KPIT 021851Z 04008KT 10SM FEW038 BKN065 BKN250 17/09 A3014 RMK AO2 SLP212 T01670094
KPIT 021951Z 07007KT 10SM FEW040 SCT065 BKN250 17/09 A3014 RMK AO2 SLP213 T01720094
KPIT 022051Z 04009KT 10SM FEW040 FEW065 SCT250 18/07 A3015 RMK AO2 SLP216 T01830072 53004
KPIT 022151Z 05010KT 10SM FEW050 SCT250 17/07 A3017 RMK AO2 SLP222 T01720072



Page loaded:  22:45 UTC  |   03:45 PM Pacific  |   04:45 PM Mountain  |   05:45 PM Central  |   06:45 PM Eastern

 

ADVISORIES

FORECASTS

FORECASTS

OBSERVATIONS

USER TOOLS

ABOUT US